Time;durP1;ratioP1;P1;durP2;ratioP2;P2;SDS_P1;SDS_P2;PMS_P1;PMS_P2;Temp;Humidity;BMP_temperature;BMP_pressure;BME280_temperature;BME280_humidity;BME280_pressure;Samples;Min_cycle;Max_cycle;Signal;HPM_P1;HPM_P2
2022/10/11 00:00:57;;;;;;;;;2.25;1.00;;;;;15.19;59.22;102114.44;5116470;27;70270;-80
2022/10/11 00:03:22;;;;;;;;;2.25;1.25;;;;;15.18;59.30;102116.19;5121358;27;45295;-81
2022/10/11 00:05:48;;;;;;;;;1.50;0.50;;;;;15.20;59.48;102124.88;5137029;27;65664;-80
2022/10/11 00:08:14;;;;;;;;;2.00;1.00;;;;;15.24;59.77;102115.19;5137452;27;45325;-81
2022/10/11 00:10:39;;;;;;;;;3.75;2.00;;;;;15.26;59.07;102118.63;5119495;27;45383;-81
2022/10/11 00:13:06;;;;;;;;;4.75;1.25;;;;;15.23;59.17;102116.94;5118049;27;45298;-80
2022/10/11 00:15:32;;;;;;;;;2.00;1.00;;;;;15.21;59.11;102120.50;5104799;27;45573;-80
2022/10/11 00:17:57;;;;;;;;;3.00;2.00;;;;;15.19;59.03;102117.94;5098617;27;46169;-80
2022/10/11 00:20:23;;;;;;;;;7.00;1.00;;;;;15.15;59.79;102124.13;5097896;27;45321;-80
2022/10/11 00:22:48;;;;;;;;;4.75;1.00;;;;;15.15;58.94;102121.50;5130920;27;45689;-81
2022/10/11 00:25:14;;;;;;;;;3.00;0.50;;;;;15.13;59.27;102127.72;5118259;27;45286;-81
2022/10/11 00:27:40;;;;;;;;;2.00;1.00;;;;;15.10;58.83;102121.66;5101666;27;46566;-80
2022/10/11 00:30:06;;;;;;;;;1.50;1.00;;;;;15.10;59.38;102129.50;5104698;27;68298;-79
2022/10/11 00:32:33;;;;;;;;;2.00;0.00;;;;;15.11;59.29;102135.63;5123989;27;45361;-80
2022/10/11 00:35:03;;;;;;;;;1.50;1.00;;;;;15.10;58.73;102133.91;5105305;27;45422;-80
2022/10/11 00:37:29;;;;;;;;;2.50;1.00;;;;;15.07;58.83;102134.81;5105992;27;46927;-81
2022/10/11 00:39:54;;;;;;;;;1.50;0.00;;;;;15.07;58.61;102131.34;5141649;27;45885;-81
2022/10/11 00:42:20;;;;;;;;;2.00;1.00;;;;;15.05;58.70;102131.38;5130320;27;67925;-80
2022/10/11 00:44:47;;;;;;;;;4.25;1.00;;;;;15.01;58.64;102140.25;5139479;27;45419;-81
2022/10/11 00:47:20;;;;;;;;;1.00;0.00;;;;;14.98;58.14;102144.69;5125398;27;46425;-80
2022/10/11 00:49:53;;;;;;;;;2.00;1.00;;;;;14.95;58.48;102142.13;5125634;27;45794;-81
2022/10/11 00:52:30;;;;;;;;;2.50;1.00;;;;;14.95;58.63;102144.75;5125656;27;45359;-80
2022/10/11 00:54:58;;;;;;;;;2.75;1.00;;;;;14.94;58.73;102133.41;5108955;27;45415;-81
2022/10/11 00:57:26;;;;;;;;;1.75;1.00;;;;;14.93;58.54;102139.56;5105089;27;45460;-80
2022/10/11 00:59:53;;;;;;;;;1.00;1.00;;;;;14.92;58.09;102139.63;5110071;27;45474;-80
2022/10/11 01:02:19;;;;;;;;;2.25;1.25;;;;;14.87;57.96;102137.94;5107570;27;45419;-80
2022/10/11 01:04:45;;;;;;;;;4.00;2.00;;;;;14.85;57.59;102138.91;5118223;27;45493;-81
2022/10/11 01:07:10;;;;;;;;;3.50;1.00;;;;;14.84;58.29;102140.66;5125623;27;46213;-80
2022/10/11 01:09:36;;;;;;;;;2.25;1.00;;;;;14.83;57.90;102149.41;5143539;27;45393;-81
2022/10/11 01:12:08;;;;;;;;;3.00;1.00;;;;;14.82;58.29;102141.56;5143483;27;64891;-81
2022/10/11 01:14:33;;;;;;;;;3.25;1.00;;;;;14.83;57.82;102140.69;5142103;27;45271;-81
2022/10/11 01:17:12;;;;;;;;;3.00;1.00;;;;;14.80;57.77;102146.88;5143675;27;45397;-80
2022/10/11 01:20:00;;;;;;;;;2.50;1.00;;;;;14.80;57.87;102144.25;5137196;27;45960;-80
2022/10/11 01:22:40;;;;;;;;;3.50;1.00;;;;;14.80;57.14;102144.25;5123399;27;45446;-80
2022/10/11 01:25:11;;;;;;;;;1.25;0.25;;;;;14.76;57.50;102145.22;5141905;27;45478;-81
2022/10/11 01:27:41;;;;;;;;;2.00;0.50;;;;;14.76;57.21;102145.22;5143914;27;45789;-80
2022/10/11 01:30:23;;;;;;;;;3.50;1.00;;;;;14.78;57.28;102146.03;5143473;27;45785;-81
2022/10/11 01:33:10;;;;;;;;;4.00;1.75;;;;;14.79;57.17;102149.53;5142965;27;45358;-81
2022/10/11 01:35:40;;;;;;;;;3.75;1.00;;;;;14.80;57.85;102144.25;5123214;27;45530;-80
2022/10/11 01:38:11;;;;;;;;;1.00;1.00;;;;;14.82;56.87;102154.69;5104747;27;46567;-80
2022/10/11 01:40:42;;;;;;;;;4.00;2.25;;;;;14.82;57.28;102144.19;5106166;27;45390;-80
2022/10/11 01:43:08;;;;;;;;;1.00;1.00;;;;;14.83;57.90;102148.56;5121824;27;45277;-81
2022/10/11 01:45:35;;;;;;;;;1.00;1.00;;;;;14.84;56.68;102147.63;5106810;27;67395;-80
2022/10/11 01:48:12;;;;;;;;;1.75;1.75;;;;;14.84;56.92;102145.03;5100294;27;67655;-80
2022/10/11 01:50:41;;;;;;;;;1.00;1.00;;;;;14.85;56.90;102142.38;5128214;27;45892;-81
2022/10/11 01:53:29;;;;;;;;;5.00;0.00;;;;;14.79;57.43;102136.44;5119650;27;45280;-79
2022/10/11 01:56:43;;;;;;;;;2.00;1.00;;;;;14.73;56.69;102137.44;5119414;27;45384;-80
2022/10/11 01:59:34;;;;;;;;;0.25;0.25;;;;;14.73;56.60;102136.56;5015509;28;46730;-81
2022/10/11 02:02:20;;;;;;;;;0.50;0.25;;;;;14.71;56.59;102141.84;5046864;28;46071;-81
2022/10/11 02:04:52;;;;;;;;;3.50;1.00;;;;;14.66;56.49;102144.56;5055803;28;45450;-80
2022/10/11 02:07:17;;;;;;;;;0.50;0.50;;;;;14.64;56.44;102135.88;5020890;28;45334;-81
2022/10/11 02:09:56;;;;;;;;;1.00;1.00;;;;;14.60;56.45;102133.38;5035205;28;46088;-80
2022/10/11 02:12:30;;;;;;;;;2.00;0.00;;;;;14.60;56.38;102135.97;5036982;28;45428;-81
2022/10/11 02:14:56;;;;;;;;;0.75;0.75;;;;;14.58;56.25;102130.81;5038151;28;45488;-81
2022/10/11 02:17:26;;;;;;;;;1.25;0.75;;;;;14.58;55.96;102135.16;5038502;28;45356;-81
2022/10/11 02:19:56;;;;;;;;;3.00;0.00;;;;;14.58;56.25;102145.63;5026987;28;46306;-81
2022/10/11 02:22:24;;;;;;;;;3.00;1.00;;;;;14.57;56.17;102131.69;5016288;28;45763;-80
2022/10/11 02:24:52;;;;;;;;;1.75;0.25;;;;;14.54;55.69;102129.09;5018751;28;45357;-80
2022/10/11 02:27:22;;;;;;;;;1.75;0.00;;;;;14.51;55.97;102139.66;5002576;28;45497;-80
2022/10/11 02:29:48;;;;;;;;;0.50;0.00;;;;;14.49;56.49;102137.06;4998180;28;45394;-81
2022/10/11 02:32:15;;;;;;;;;0.50;0.50;;;;;14.52;56.33;102142.25;5013718;28;70265;-80
2022/10/11 02:34:50;;;;;;;;;2.50;0.00;;;;;14.51;56.15;102137.91;5041627;27;45407;-80
2022/10/11 02:37:25;;;;;;;;;1.25;0.75;;;;;14.51;55.71;102137.91;5079968;27;45633;-80
2022/10/11 02:39:55;;;;;;;;;1.75;0.50;;;;;14.46;56.19;102144.16;5097334;27;47458;-80
2022/10/11 02:42:31;;;;;;;;;1.00;0.00;;;;;14.44;56.07;102140.69;5096466;27;45768;-80
2022/10/11 02:45:04;;;;;;;;;3.25;0.00;;;;;14.43;56.19;102142.47;5079699;27;45414;-80
2022/10/11 02:47:30;;;;;;;;;2.00;0.00;;;;;14.47;55.71;102145.88;5098684;27;45462;-80
2022/10/11 02:49:57;;;;;;;;;0.25;0.25;;;;;14.47;55.61;102144.13;5099704;27;46104;-80
2022/10/11 02:52:23;;;;;;;;;1.50;1.00;;;;;14.48;56.86;102144.97;5094915;27;45511;-80
2022/10/11 02:54:48;;;;;;;;;2.50;1.00;;;;;14.47;56.35;102138.88;5097907;27;45574;-79
2022/10/11 02:57:13;;;;;;;;;1.00;1.00;;;;;14.49;56.21;102141.47;5094582;27;57232;-80
2022/10/11 02:59:39;;;;;;;;;0.75;0.00;;;;;14.49;56.00;102144.94;5116591;27;61591;-81
2022/10/11 03:02:04;;;;;;;;;1.50;0.00;;;;;14.51;55.55;102142.28;5102585;27;45379;-81
2022/10/11 03:04:29;;;;;;;;;2.50;0.25;;;;;14.49;55.29;102147.56;5097321;27;59528;-81
2022/10/11 03:06:55;;;;;;;;;2.00;0.00;;;;;14.46;55.59;102147.63;5102327;27;71366;-81
2022/10/11 03:09:20;;;;;;;;;0.00;0.00;;;;;14.45;55.63;102142.41;5117011;27;67078;-81
2022/10/11 03:11:45;;;;;;;;;1.25;0.00;;;;;14.41;55.99;102144.25;5105474;27;45548;-80
2022/10/11 03:14:11;;;;;;;;;3.25;1.00;;;;;14.41;56.12;102154.75;5096375;27;66936;-80
2022/10/11 03:16:36;;;;;;;;;0.00;0.00;;;;;14.42;55.95;102142.50;5089368;27;45616;-81
2022/10/11 03:19:01;;;;;;;;;0.00;0.00;;;;;14.41;55.73;102143.38;5094713;27;73519;-81
2022/10/11 03:21:27;;;;;;;;;1.00;1.00;;;;;14.40;55.67;102149.53;5098869;27;45505;-81
2022/10/11 03:23:52;;;;;;;;;1.00;1.00;;;;;14.37;55.62;102155.69;5109113;27;45285;-81
2022/10/11 03:26:18;;;;;;;;;4.25;0.00;;;;;14.34;55.95;102150.53;5107036;27;69555;-81
2022/10/11 03:28:43;;;;;;;;;0.50;0.25;;;;;14.37;55.84;102157.44;5096630;27;47081;-81
2022/10/11 03:31:08;;;;;;;;;0.75;0.75;;;;;14.37;55.80;102163.53;5102195;27;45435;-81
2022/10/11 03:33:34;;;;;;;;;1.00;0.00;;;;;14.30;55.10;102157.59;5110567;27;65684;-81
2022/10/11 03:35:59;;;;;;;;;1.00;1.00;;;;;14.28;55.55;102158.50;5096670;27;61480;-81
2022/10/11 03:38:24;;;;;;;;;1.00;0.00;;;;;14.26;55.35;102155.94;5096824;27;53062;-81
2022/10/11 03:40:50;;;;;;;;;0.75;0.75;;;;;14.23;55.20;102161.22;5078804;27;45703;-81
2022/10/11 03:43:15;;;;;;;;;0.00;0.00;;;;;14.21;55.49;102164.75;5096897;27;45317;-81
2022/10/11 03:45:41;;;;;;;;;0.75;0.00;;;;;14.18;55.36;102167.47;5078643;27;45468;-80
2022/10/11 03:48:07;;;;;;;;;0.75;0.00;;;;;14.12;55.02;102169.31;5078549;27;46231;-81
2022/10/11 03:50:32;;;;;;;;;0.00;0.00;;;;;14.09;55.02;102176.38;5078791;27;45356;-81
2022/10/11 03:52:57;;;;;;;;;1.75;0.00;;;;;14.06;55.25;102172.06;5106773;27;45362;-81
2022/10/11 03:55:23;;;;;;;;;2.50;0.00;;;;;14.01;55.67;102176.53;5117623;27;45274;-81
2022/10/11 03:57:48;;;;;;;;;1.25;0.00;;;;;13.97;55.76;102174.88;5116018;27;75675;-81
2022/10/11 04:00:14;;;;;;;;;2.00;0.00;;;;;13.94;55.17;102183.63;5117500;27;45412;-81
2022/10/11 04:02:39;;;;;;;;;0.00;0.00;;;;;13.90;55.64;102184.59;5117183;27;45357;-81
2022/10/11 04:05:06;;;;;;;;;0.00;0.00;;;;;13.86;55.85;102180.31;5117583;27;45296;-81
2022/10/11 04:07:31;;;;;;;;;2.75;0.00;;;;;13.85;55.76;102182.97;5090421;27;47273;-81
2022/10/11 04:09:57;;;;;;;;;0.00;0.00;;;;;13.81;55.98;102182.16;5096596;27;45387;-81
2022/10/11 04:12:23;;;;;;;;;2.25;1.00;;;;;13.79;55.65;102178.72;5078146;27;45415;-81
2022/10/11 04:14:48;;;;;;;;;0.00;0.00;;;;;13.74;56.22;102183.16;5110978;27;45345;-80
2022/10/11 04:17:14;;;;;;;;;0.00;0.00;;;;;13.69;56.25;102193.72;5116958;27;45571;-81
2022/10/11 04:19:39;;;;;;;;;2.25;1.00;;;;;13.63;55.64;102182.50;5111729;27;67293;-80
2022/10/11 04:22:04;;;;;;;;;0.00;0.00;;;;;13.58;56.21;102189.56;5117293;27;45398;-81
2022/10/11 04:24:30;;;;;;;;;1.00;1.00;;;;;13.54;56.21;102194.88;5117211;27;45375;-81
2022/10/11 04:26:55;;;;;;;;;1.00;1.00;;;;;13.51;56.31;102188.84;5098098;27;53243;-81
2022/10/11 04:29:20;;;;;;;;;2.50;0.00;;;;;13.49;56.33;102193.22;5128623;27;60410;-81
2022/10/11 04:31:46;;;;;;;;;4.25;0.75;;;;;13.43;56.71;102199.44;5118779;27;58231;-81
2022/10/11 04:34:11;;;;;;;;;0.75;0.00;;;;;13.43;56.50;102202.06;5106582;27;70346;-81
2022/10/11 04:36:37;;;;;;;;;3.00;0.00;;;;;13.38;56.22;102193.41;5134313;27;72587;-81
2022/10/11 04:39:04;;;;;;;;;4.00;1.00;;;;;13.36;56.62;102200.44;5137713;27;45365;-81
2022/10/11 04:41:29;;;;;;;;;1.00;1.00;;;;;13.34;57.10;102202.22;5118952;27;45459;-80
2022/10/11 04:43:55;;;;;;;;;0.25;0.00;;;;;13.30;56.55;102200.50;5119243;27;45233;-81
2022/10/11 04:46:20;;;;;;;;;6.75;0.00;;;;;13.28;56.62;102199.66;5136615;27;70383;-80
2022/10/11 04:48:45;;;;;;;;;2.50;1.00;;;;;13.25;57.03;102195.34;5136303;27;73160;-81
2022/10/11 04:51:11;;;;;;;;;2.25;0.00;;;;;13.26;57.09;102190.97;5135591;27;67240;-80
2022/10/11 04:53:36;;;;;;;;;1.50;0.00;;;;;13.26;56.91;102191.84;5137552;27;45385;-81
2022/10/11 04:56:04;;;;;;;;;4.00;2.00;;;;;13.26;57.36;102194.47;5097380;27;63734;-81
2022/10/11 04:58:31;;;;;;;;;5.25;1.00;;;;;13.26;56.95;102196.19;5116663;27;45408;-80
2022/10/11 05:00:56;;;;;;;;;1.75;0.25;;;;;13.22;57.23;102203.22;5098181;27;45414;-81
2022/10/11 05:03:23;;;;;;;;;1.00;0.00;;;;;13.23;56.97;102199.75;5115633;27;63638;-80
2022/10/11 05:05:49;;;;;;;;;3.50;1.00;;;;;13.21;57.39;102200.66;5116547;27;45449;-81
2022/10/11 05:08:14;;;;;;;;;3.25;1.00;;;;;13.19;56.63;102200.69;5098047;27;45285;-81
2022/10/11 05:10:39;;;;;;;;;2.75;0.00;;;;;13.17;56.41;102195.47;5116256;27;45332;-81
2022/10/11 05:13:05;;;;;;;;;1.00;0.00;;;;;13.13;56.95;102196.41;5098270;27;45324;-81
2022/10/11 05:15:30;;;;;;;;;0.00;0.00;;;;;13.10;57.13;102193.00;5100791;27;45927;-81
2022/10/11 05:17:56;;;;;;;;;0.00;0.00;;;;;13.08;56.12;102200.00;5127126;27;45439;-81
2022/10/11 05:20:21;;;;;;;;;2.00;0.00;;;;;13.07;56.38;102200.88;5109138;27;45381;-81
2022/10/11 05:22:46;;;;;;;;;0.00;0.00;;;;;13.07;56.48;102191.28;5119054;27;68468;-81
2022/10/11 05:25:12;;;;;;;;;0.50;0.00;;;;;13.07;56.71;102198.25;5118680;27;73931;-80
2022/10/11 05:27:37;;;;;;;;;0.00;0.00;;;;;13.06;57.04;102193.94;5100526;27;68946;-80
2022/10/11 05:30:03;;;;;;;;;0.25;0.00;;;;;13.06;56.57;102199.16;5119719;27;46857;-80
2022/10/11 05:32:29;;;;;;;;;2.00;0.00;;;;;13.06;56.18;102188.72;5102596;27;45349;-81
2022/10/11 05:34:54;;;;;;;;;3.75;0.00;;;;;13.04;56.73;102190.44;5118568;27;68312;-81
2022/10/11 05:37:19;;;;;;;;;0.00;0.00;;;;;13.02;56.44;102189.63;5129484;27;45474;-80
2022/10/11 05:39:45;;;;;;;;;4.75;0.50;;;;;13.01;56.48;102195.75;5120276;27;69400;-80
2022/10/11 05:42:11;;;;;;;;;2.25;1.00;;;;;12.98;56.23;102189.69;5118879;27;70018;-80
2022/10/11 05:44:36;;;;;;;;;2.25;0.00;;;;;12.96;56.35;102188.84;5101281;27;45452;-81
2022/10/11 05:47:02;;;;;;;;;0.00;0.00;;;;;12.95;56.30;102194.09;5118723;27;61981;-81
2022/10/11 05:49:27;;;;;;;;;2.25;0.00;;;;;12.95;56.51;102186.25;5119507;27;45438;-81
2022/10/11 05:51:52;;;;;;;;;1.00;1.00;;;;;12.97;56.51;102195.78;5119731;27;70209;-81
2022/10/11 05:54:18;;;;;;;;;3.50;1.00;;;;;12.95;55.96;102196.72;5127557;27;75579;-81
2022/10/11 05:56:43;;;;;;;;;4.00;0.50;;;;;12.92;56.00;102194.13;5139629;27;60375;-81
2022/10/11 05:59:09;;;;;;;;;3.00;2.00;;;;;12.91;56.22;102198.50;5140075;27;45347;-80
2022/10/11 06:01:34;;;;;;;;;1.00;0.00;;;;;12.92;56.14;102194.13;5119583;27;45359;-81
2022/10/11 06:03:59;;;;;;;;;3.00;1.00;;;;;12.92;56.16;102194.13;5139075;27;72966;-80
2022/10/11 06:06:25;;;;;;;;;1.00;0.00;;;;;12.92;56.23;102199.38;5126066;27;45451;-79
2022/10/11 06:08:50;;;;;;;;;1.00;1.00;;;;;12.92;55.99;102194.13;5120764;27;69113;-80
2022/10/11 06:11:21;;;;;;;;;3.00;0.00;;;;;12.92;55.96;102201.97;5135567;27;67824;-80
2022/10/11 06:13:47;;;;;;;;;1.25;1.25;;;;;12.92;55.77;102207.19;5121357;27;46971;-82
2022/10/11 06:16:13;;;;;;;;;1.00;0.75;;;;;12.90;56.10;102201.13;5119084;27;45290;-80
2022/10/11 06:18:41;;;;;;;;;0.00;0.00;;;;;12.88;55.93;102205.53;5100671;27;45465;-80
2022/10/11 06:21:09;;;;;;;;;1.00;0.00;;;;;12.89;56.31;102213.34;5129984;27;45461;-79
2022/10/11 06:23:34;;;;;;;;;1.00;1.00;;;;;12.90;55.82;102215.06;5139414;27;47101;-80
2022/10/11 06:26:04;;;;;;;;;4.50;0.00;;;;;12.91;56.46;102216.81;5108507;27;45493;-80
2022/10/11 06:28:30;;;;;;;;;2.75;0.00;;;;;12.90;55.88;102219.44;5119437;27;45554;-80
2022/10/11 06:30:56;;;;;;;;;1.00;1.00;;;;;12.88;55.89;102224.69;5130667;27;53179;-79
2022/10/11 06:33:21;;;;;;;;;2.00;1.00;;;;;12.87;55.69;102222.09;5137381;27;46276;-80
2022/10/11 06:35:46;;;;;;;;;2.00;1.00;;;;;12.85;55.66;102221.25;5120502;27;45466;-79
2022/10/11 06:38:15;;;;;;;;;0.50;0.25;;;;;12.84;56.57;102232.59;5120814;27;45444;-81
2022/10/11 06:40:40;;;;;;;;;1.25;1.00;;;;;12.82;56.07;102231.75;5103705;27;45433;-81
2022/10/11 06:43:06;;;;;;;;;7.00;1.50;;;;;12.82;56.22;102231.75;5120823;27;45544;-81
2022/10/11 06:45:31;;;;;;;;;3.00;1.00;;;;;12.81;56.13;102235.25;5139306;27;45430;-81
2022/10/11 06:47:57;;;;;;;;;1.50;1.00;;;;;12.81;56.10;102232.63;5138248;27;68609;-81
2022/10/11 06:50:22;;;;;;;;;2.00;1.00;;;;;12.81;56.43;102238.72;5138898;27;45450;-81
2022/10/11 06:52:47;;;;;;;;;4.25;1.25;;;;;12.81;56.75;102250.94;5138819;27;56509;-80
2022/10/11 06:55:13;;;;;;;;;2.75;1.00;;;;;12.78;56.29;102241.41;5139333;27;45352;-80
2022/10/11 06:57:38;;;;;;;;;0.50;0.50;;;;;12.76;56.81;102240.56;5139283;27;45286;-80
2022/10/11 07:00:05;;;;;;;;;1.25;1.00;;;;;12.76;56.28;102238.78;5139158;27;45407;-81
2022/10/11 07:02:30;;;;;;;;;1.00;1.00;;;;;12.78;56.46;102244.00;5138830;27;45469;-79
2022/10/11 07:04:56;;;;;;;;;5.00;1.00;;;;;12.79;56.52;102240.50;5120203;27;45300;-82
2022/10/11 07:07:21;;;;;;;;;2.75;1.00;;;;;12.78;56.80;102244.00;5139084;27;45316;-83
2022/10/11 07:09:46;;;;;;;;;3.25;1.75;;;;;12.78;56.44;102242.25;5138825;27;45553;-82
2022/10/11 07:12:12;;;;;;;;;3.00;1.00;;;;;12.82;56.62;102245.69;5120226;27;47115;-82
2022/10/11 07:14:37;;;;;;;;;1.75;1.00;;;;;12.85;56.14;102250.88;5138725;27;45354;-83
2022/10/11 07:17:03;;;;;;;;;2.00;1.00;;;;;12.84;55.87;102251.75;5120461;27;45321;-83
2022/10/11 07:19:28;;;;;;;;;1.75;0.00;;;;;12.88;56.24;102248.19;5138171;27;45388;-83
2022/10/11 07:21:54;;;;;;;;;1.00;1.00;;;;;12.93;56.36;102259.47;5138754;27;46169;-83
2022/10/11 07:24:19;;;;;;;;;3.25;1.00;;;;;12.96;56.83;102259.41;5119153;27;72899;-82
2022/10/11 07:26:44;;;;;;;;;0.75;0.75;;;;;13.01;55.88;102254.13;5138132;27;63222;-83
2022/10/11 07:29:10;;;;;;;;;2.75;1.00;;;;;13.06;56.27;102256.66;5120123;27;45485;-82
2022/10/11 07:31:37;;;;;;;;;2.00;0.75;;;;;13.09;55.60;102267.06;5138480;27;47148;-82
2022/10/11 07:34:03;;;;;;;;;3.00;1.50;;;;;13.10;55.68;102271.41;5138193;27;45248;-83
2022/10/11 07:36:28;;;;;;;;;3.00;1.50;;;;;13.13;56.08;102272.25;5118313;27;69276;-82
2022/10/11 07:38:53;;;;;;;;;0.75;0.75;;;;;13.16;55.77;102276.53;5119515;27;51809;-83
2022/10/11 07:41:19;;;;;;;;;1.75;0.00;;;;;13.16;55.63;102277.41;5137694;27;68714;-82
2022/10/11 07:43:46;;;;;;;;;4.75;1.00;;;;;13.17;55.77;102276.53;5138433;27;45396;-84
2022/10/11 07:46:12;;;;;;;;;2.75;1.00;;;;;13.20;55.31;102282.59;5120308;27;45475;-80
2022/10/11 07:48:38;;;;;;;;;1.50;1.25;;;;;13.18;55.88;102286.09;5138028;27;45422;-80
2022/10/11 07:51:15;;;;;;;;;2.00;1.00;;;;;13.21;55.79;102295.66;5138183;27;46305;-81
2022/10/11 07:53:49;;;;;;;;;2.00;0.75;;;;;13.20;55.46;102290.44;5119817;27;45683;-81
2022/10/11 07:56:20;;;;;;;;;4.00;1.00;;;;;13.21;55.51;102292.19;5138390;27;45347;-81
2022/10/11 07:58:53;;;;;;;;;1.50;0.25;;;;;13.17;55.43;102289.59;5138132;27;45360;-81
2022/10/11 08:01:19;;;;;;;;;1.25;1.25;;;;;13.14;55.75;102296.63;5137947;27;46134;-79
2022/10/11 08:03:45;;;;;;;;;4.75;1.00;;;;;13.15;55.84;102301.84;5137663;27;45440;-80
2022/10/11 08:06:13;;;;;;;;;3.75;1.00;;;;;13.19;55.87;102297.44;5119710;27;45368;-82
2022/10/11 08:08:38;;;;;;;;;2.00;2.00;;;;;13.18;55.78;102293.94;5137989;27;45361;-82
2022/10/11 08:11:03;;;;;;;;;3.25;1.00;;;;;13.20;55.62;102300.91;5137513;27;55962;-82
2022/10/11 08:13:29;;;;;;;;;1.25;1.00;;;;;13.20;55.86;102299.13;5137475;27;54609;-82
2022/10/11 08:15:54;;;;;;;;;4.75;1.00;;;;;13.24;55.75;102302.56;5137107;27;68257;-83
2022/10/11 08:18:20;;;;;;;;;4.00;2.00;;;;;13.25;56.01;102302.56;5137559;27;45457;-83
2022/10/11 08:20:45;;;;;;;;;4.25;2.00;;;;;13.29;55.96;102304.22;5137261;27;46371;-83
2022/10/11 08:23:11;;;;;;;;;4.25;2.75;;;;;13.33;55.48;102307.69;5137003;27;66602;-83
2022/10/11 08:25:42;;;;;;;;;4.75;2.25;;;;;13.34;55.17;102312.91;5119299;27;45404;-83
2022/10/11 08:28:08;;;;;;;;;3.25;1.00;;;;;13.37;55.20;102306.75;5137710;27;45414;-82
2022/10/11 08:30:34;;;;;;;;;2.00;2.00;;;;;13.35;55.44;102306.81;5119088;27;46883;-82
2022/10/11 08:33:00;;;;;;;;;2.50;1.00;;;;;13.34;56.09;102315.53;5118682;27;45536;-83
2022/10/11 08:35:25;;;;;;;;;1.75;0.75;;;;;13.34;55.38;102315.53;5137634;27;45337;-83
2022/10/11 08:37:50;;;;;;;;;1.00;0.50;;;;;13.38;54.98;102313.72;5137925;27;45273;-83
2022/10/11 08:40:19;;;;;;;;;2.50;1.25;;;;;13.40;55.10;102318.94;5136742;27;67822;-82
2022/10/11 08:42:51;;;;;;;;;3.00;1.25;;;;;13.40;55.25;102319.78;5137480;27;45741;-81
2022/10/11 08:45:42;;;;;;;;;3.50;1.75;;;;;13.45;55.03;102322.34;5119185;27;45342;-80
2022/10/11 08:48:13;;;;;;;;;3.00;1.25;;;;;13.55;55.81;102321.31;5119235;27;45473;-81
2022/10/11 08:50:40;;;;;;;;;3.00;1.00;;;;;13.60;54.72;102329.94;5122473;27;45250;-80
2022/10/11 08:53:26;;;;;;;;;6.00;1.00;;;;;13.63;54.86;102322.06;5122618;27;45446;-81
2022/10/11 08:55:53;;;;;;;;;1.00;1.00;;;;;13.64;55.12;102323.78;5122724;27;45403;-81
2022/10/11 08:58:21;;;;;;;;;3.75;2.00;;;;;13.64;54.75;102315.94;5122684;27;45442;-80
2022/10/11 09:00:50;;;;;;;;;1.25;1.00;;;;;13.60;54.70;102329.94;5121821;27;46377;-80
2022/10/11 09:03:25;;;;;;;;;3.50;1.25;;;;;13.59;54.31;102328.22;5122417;27;45863;-80
2022/10/11 09:06:02;;;;;;;;;3.50;2.00;;;;;13.57;54.71;102326.53;5122570;27;45311;-81
2022/10/11 09:08:42;;;;;;;;;7.00;3.00;;;;;13.55;54.77;102323.91;5141082;27;45356;-80
2022/10/11 09:11:22;;;;;;;;;2.00;2.00;;;;;13.57;54.61;102324.75;5122300;27;47454;-80
2022/10/11 09:14:10;;;;;;;;;2.75;1.50;;;;;13.59;54.46;102322.13;5141000;27;45754;-80
2022/10/11 09:16:57;;;;;;;;;1.50;1.25;;;;;13.60;54.79;102332.56;5122131;27;45313;-80
2022/10/11 09:19:44;;;;;;;;;3.00;2.00;;;;;13.57;54.59;102324.75;5140611;27;45346;-80
2022/10/11 09:22:19;;;;;;;;;2.25;0.50;;;;;13.60;54.70;102319.47;5140573;27;46639;-81
2022/10/11 09:24:48;;;;;;;;;3.25;2.00;;;;;13.62;54.58;102322.94;5122022;27;45671;-80
2022/10/11 09:27:19;;;;;;;;;1.00;1.00;;;;;13.65;55.03;102316.78;5140925;27;45362;-80
2022/10/11 09:30:11;;;;;;;;;1.50;1.50;;;;;13.69;54.82;102314.09;5121853;27;45379;-80
2022/10/11 09:32:46;;;;;;;;;2.75;2.50;;;;;13.74;55.18;102311.38;5137193;27;45406;-80
2022/10/11 09:35:14;;;;;;;;;2.25;2.00;;;;;13.83;54.92;102313.00;5101752;27;45667;-80
2022/10/11 09:37:56;;;;;;;;;2.25;2.00;;;;;13.88;54.47;102309.41;5119592;27;45538;-80
2022/10/11 09:40:43;;;;;;;;;2.25;2.00;;;;;13.95;54.74;102312.78;5101176;27;45344;-80
2022/10/11 09:43:08;;;;;;;;;3.00;2.00;;;;;14.03;54.08;102310.03;5119621;27;46394;-80
2022/10/11 09:45:34;;;;;;;;;3.25;2.00;;;;;14.07;54.62;102309.94;5101011;27;45411;-80
2022/10/11 09:48:01;;;;;;;;;1.25;1.25;;;;;14.12;54.71;102315.09;5119182;27;50473;-80
2022/10/11 09:50:29;;;;;;;;;1.00;1.00;;;;;14.17;54.86;102315.88;5119616;27;45352;-81
2022/10/11 09:52:58;;;;;;;;;2.50;2.00;;;;;14.22;54.65;102310.53;5101110;27;46148;-81
2022/10/11 09:55:49;;;;;;;;;4.75;2.00;;;;;14.27;54.54;102306.09;5101154;27;45411;-81
2022/10/11 09:58:28;;;;;;;;;2.75;2.75;;;;;14.32;55.15;102304.25;5119343;27;45337;-81
2022/10/11 10:01:07;;;;;;;;;3.00;1.00;;;;;14.41;55.11;102297.94;5118440;27;45478;-80
2022/10/11 10:03:36;;;;;;;;;4.00;2.25;;;;;14.51;54.88;102302.13;5118792;27;46270;-80
2022/10/11 10:06:16;;;;;;;;;4.00;2.25;;;;;14.60;54.57;102306.31;5101033;27;45700;-81
2022/10/11 10:08:42;;;;;;;;;3.25;3.25;;;;;14.66;54.13;102303.59;5119232;27;45338;-81
2022/10/11 10:11:09;;;;;;;;;4.00;3.00;;;;;14.69;54.39;102301.75;5125160;27;45414;-81
2022/10/11 10:13:37;;;;;;;;;5.50;3.00;;;;;14.75;54.57;102298.16;5123638;27;46586;-80
2022/10/11 10:16:04;;;;;;;;;4.25;3.00;;;;;14.81;54.60;102300.63;5126402;27;45508;-80
2022/10/11 10:18:33;;;;;;;;;6.25;3.00;;;;;14.92;54.80;102310.88;5100114;27;45581;-80
2022/10/11 10:20:59;;;;;;;;;2.75;1.00;;;;;14.99;54.44;102304.63;5124793;27;45598;-79
2022/10/11 10:23:32;;;;;;;;;2.25;2.00;;;;;15.07;54.03;102293.94;5097470;27;48301;-80
2022/10/11 10:26:20;;;;;;;;;3.00;2.00;;;;;15.19;53.86;102304.16;5110179;27;45430;-79
2022/10/11 10:29:08;;;;;;;;;3.25;1.50;;;;;15.25;54.05;102296.13;5134318;27;45322;-78
2022/10/11 10:31:46;;;;;;;;;4.50;2.00;;;;;15.31;53.86;102292.50;5119559;27;45620;-79
2022/10/11 10:34:15;;;;;;;;;2.00;2.00;;;;;15.39;53.72;102285.31;5125324;27;45538;-79
2022/10/11 10:36:45;;;;;;;;;3.50;2.00;;;;;15.50;53.20;102285.03;5120097;27;45717;-81
2022/10/11 10:39:32;;;;;;;;;3.00;1.25;;;;;15.59;53.04;102286.59;5132063;27;45489;-79
2022/10/11 10:42:01;;;;;;;;;2.25;1.00;;;;;15.68;52.53;102291.59;5124452;27;45508;-79
2022/10/11 10:44:27;;;;;;;;;2.00;1.00;;;;;15.76;52.27;102289.66;5100240;27;46175;-79
2022/10/11 10:47:14;;;;;;;;;2.00;1.00;;;;;15.89;51.67;102289.34;5107018;27;45357;-79
2022/10/11 10:49:44;;;;;;;;;1.00;1.00;;;;;16.02;51.32;102299.47;5105199;27;45440;-79
2022/10/11 10:52:30;;;;;;;;;2.00;0.50;;;;;16.17;50.99;102289.47;5121500;27;45425;-79
2022/10/11 10:55:10;;;;;;;;;4.00;1.50;;;;;16.32;50.26;102286.38;5123226;27;46198;-79
2022/10/11 10:57:39;;;;;;;;;1.00;1.00;;;;;16.52;49.10;102290.22;5129983;27;45542;-79
2022/10/11 11:00:12;;;;;;;;;0.25;0.00;;;;;16.64;48.61;102287.22;5131258;27;45383;-79
2022/10/11 11:02:57;;;;;;;;;1.75;1.75;;;;;16.85;48.27;102288.41;5130405;27;45558;-79
2022/10/11 11:05:26;;;;;;;;;2.75;1.00;;;;;17.08;47.50;102282.41;5100547;27;47396;-80
2022/10/11 11:08:26;;;;;;;;;2.50;1.00;;;;;17.38;46.73;102285.84;5123963;27;45841;-80
2022/10/11 11:11:02;;;;;;;;;4.75;1.00;;;;;18.88;47.25;102283.16;5124610;27;45379;-79
2022/10/11 11:13:40;;;;;;;;;4.50;1.00;;;;;21.62;44.75;102282.34;5121637;27;46938;-81
2022/10/11 11:16:14;;;;;;;;;2.25;1.00;;;;;23.91;40.45;102271.38;5117761;27;46033;-79
2022/10/11 11:19:20;;;;;;;;;1.75;0.75;;;;;26.07;37.33;102279.47;5120054;27;45300;-79
2022/10/11 11:22:04;;;;;;;;;4.50;1.25;;;;;28.01;34.88;102283.00;5096836;27;45417;-80
2022/10/11 11:24:50;;;;;;;;;3.00;1.00;;;;;29.56;32.67;102277.47;5087482;27;45492;-80
2022/10/11 11:27:34;;;;;;;;;1.00;1.00;;;;;30.49;29.63;102281.03;5084529;27;46163;-81
2022/10/11 11:30:11;;;;;;;;;0.25;0.25;;;;;31.56;29.23;102278.41;5114384;27;45706;-80
2022/10/11 11:32:58;;;;;;;;;3.50;1.25;;;;;32.36;28.21;102281.50;5092892;27;46194;-81
2022/10/11 11:35:48;;;;;;;;;1.50;1.00;;;;;33.24;25.93;102280.03;5109782;27;45340;-80